Ottertail, Minnesota
Current Conditions -  °F | °C
As of 1:35 PM on Tuesday 21 Oct 2014 (Local Time) from KADC Reporting Station
Clear Clear  
Wind Chill: 55°   Ceiling: Unl
Heat Index: 55°   Visibility: 10mi
Dew Point: 39°   Wind: 18mph
Humidity: 54%   Direction: 130°SE
Pressure: 30.08"   Gusts: 22mph
Location:  46.43°N, 95.56°W
Report Text: KADC 211835Z AUTO 13016G19KT 10SM CLR 13/04 A3008 RMK AO2
Loading
Personal Weather Stations






























Interactive Weather Map New forecast layout! Learn more

10-Day Weather Forecast

Advertisements
Track Severe Weather on mobile